sensor_id;sensor_type;location;lat;lon;timestamp;pressure;altitude;pressure_sealevel;temperature;humidity
36454;BME280;22478;51.740;-1.314;2024-03-08T00:00:44;100155.58;;;-4.16;100.00
36454;BME280;22478;51.740;-1.314;2024-03-08T00:03:12;100162.29;;;-3.77;100.00
36454;BME280;22478;51.740;-1.314;2024-03-08T00:05:39;100163.51;;;-3.65;100.00
36454;BME280;22478;51.740;-1.314;2024-03-08T00:08:07;100164.38;;;-3.88;100.00
36454;BME280;22478;51.740;-1.314;2024-03-08T00:10:35;100168.52;;;-3.77;100.00
36454;BME280;22478;51.740;-1.314;2024-03-08T00:13:03;100163.35;;;-3.84;100.00
36454;BME280;22478;51.740;-1.314;2024-03-08T00:15:30;100162.14;;;-3.58;100.00
36454;BME280;22478;51.740;-1.314;2024-03-08T00:17:58;100153.25;;;-3.80;100.00
36454;BME280;22478;51.740;-1.314;2024-03-08T00:20:25;100147.40;;;-3.27;100.00
36454;BME280;22478;51.740;-1.314;2024-03-08T00:22:52;100148.13;;;-3.84;100.00
36454;BME280;22478;51.740;-1.314;2024-03-08T00:25:20;100147.46;;;-4.04;100.00
36454;BME280;22478;51.740;-1.314;2024-03-08T00:27:47;100145.18;;;-3.65;100.00
36454;BME280;22478;51.740;-1.314;2024-03-08T00:30:14;100144.73;;;-2.86;100.00
36454;BME280;22478;51.740;-1.314;2024-03-08T00:32:42;100142.92;;;-4.04;100.00
36454;BME280;22478;51.740;-1.314;2024-03-08T00:35:09;100140.25;;;-3.95;100.00
36454;BME280;22478;51.740;-1.314;2024-03-08T00:37:36;100136.53;;;-3.38;100.00
36454;BME280;22478;51.740;-1.314;2024-03-08T00:40:04;100134.09;;;-3.73;100.00
36454;BME280;22478;51.740;-1.314;2024-03-08T00:42:31;100121.50;;;-3.34;100.00
36454;BME280;22478;51.740;-1.314;2024-03-08T00:44:59;100122.04;;;-4.33;100.00
36454;BME280;22478;51.740;-1.314;2024-03-08T00:47:26;100123.89;;;-3.35;100.00
36454;BME280;22478;51.740;-1.314;2024-03-08T00:49:53;100121.01;;;-3.63;100.00
36454;BME280;22478;51.740;-1.314;2024-03-08T00:52:20;100117.92;;;-3.27;100.00
36454;BME280;22478;51.740;-1.314;2024-03-08T00:54:48;100113.48;;;-1.94;100.00
36454;BME280;22478;51.740;-1.314;2024-03-08T00:57:15;100111.48;;;-3.64;100.00
36454;BME280;22478;51.740;-1.314;2024-03-08T00:59:43;100103.47;;;-4.14;100.00
36454;BME280;22478;51.740;-1.314;2024-03-08T01:02:10;100097.79;;;-3.50;100.00
36454;BME280;22478;51.740;-1.314;2024-03-08T01:04:37;100089.31;;;-2.66;100.00
36454;BME280;22478;51.740;-1.314;2024-03-08T01:07:04;100092.46;;;-3.05;100.00
36454;BME280;22478;51.740;-1.314;2024-03-08T01:09:32;100095.01;;;-4.09;100.00
36454;BME280;22478;51.740;-1.314;2024-03-08T01:11:59;100091.34;;;-3.03;100.00
36454;BME280;22478;51.740;-1.314;2024-03-08T01:14:26;100084.00;;;-2.00;100.00
36454;BME280;22478;51.740;-1.314;2024-03-08T01:16:53;100079.73;;;-3.41;100.00
36454;BME280;22478;51.740;-1.314;2024-03-08T01:19:20;100078.73;;;-4.27;100.00
36454;BME280;22478;51.740;-1.314;2024-03-08T01:21:47;100074.11;;;-3.13;100.00
36454;BME280;22478;51.740;-1.314;2024-03-08T01:24:14;100070.78;;;-2.59;100.00
36454;BME280;22478;51.740;-1.314;2024-03-08T01:26:42;100072.48;;;-3.06;100.00
36454;BME280;22478;51.740;-1.314;2024-03-08T01:29:09;100067.83;;;-2.35;100.00
36454;BME280;22478;51.740;-1.314;2024-03-08T01:31:36;100068.34;;;-2.93;100.00
36454;BME280;22478;51.740;-1.314;2024-03-08T01:34:04;100065.27;;;-3.34;100.00
36454;BME280;22478;51.740;-1.314;2024-03-08T01:36:31;100058.16;;;-0.30;100.00
36454;BME280;22478;51.740;-1.314;2024-03-08T01:38:58;100059.86;;;-2.40;100.00
36454;BME280;22478;51.740;-1.314;2024-03-08T01:41:26;100060.42;;;-1.56;100.00
36454;BME280;22478;51.740;-1.314;2024-03-08T01:43:53;100054.33;;;-1.33;100.00
36454;BME280;22478;51.740;-1.314;2024-03-08T01:46:21;100051.63;;;-2.17;100.00
36454;BME280;22478;51.740;-1.314;2024-03-08T01:48:49;100047.67;;;-3.16;100.00
36454;BME280;22478;51.740;-1.314;2024-03-08T01:51:16;100041.92;;;-3.19;100.00
36454;BME280;22478;51.740;-1.314;2024-03-08T01:53:46;100036.70;;;-2.80;100.00
36454;BME280;22478;51.740;-1.314;2024-03-08T01:56:14;100032.15;;;-1.29;100.00
36454;BME280;22478;51.740;-1.314;2024-03-08T01:58:41;100019.02;;;0.19;100.00
36454;BME280;22478;51.740;-1.314;2024-03-08T02:01:11;100031.50;;;-2.79;100.00
36454;BME280;22478;51.740;-1.314;2024-03-08T02:03:38;100025.72;;;-1.48;100.00
36454;BME280;22478;51.740;-1.314;2024-03-08T02:06:06;100031.11;;;-2.38;100.00
36454;BME280;22478;51.740;-1.314;2024-03-08T02:08:33;100026.04;;;-2.60;100.00
36454;BME280;22478;51.740;-1.314;2024-03-08T02:11:00;100018.04;;;-1.69;100.00
36454;BME280;22478;51.740;-1.314;2024-03-08T02:13:28;100017.88;;;-2.26;100.00
36454;BME280;22478;51.740;-1.314;2024-03-08T02:15:56;100014.80;;;-2.43;100.00
36454;BME280;22478;51.740;-1.314;2024-03-08T02:18:24;100011.61;;;-2.38;100.00
36454;BME280;22478;51.740;-1.314;2024-03-08T02:20:51;100006.10;;;-2.93;100.00
36454;BME280;22478;51.740;-1.314;2024-03-08T02:23:19;100003.50;;;-3.15;100.00
36454;BME280;22478;51.740;-1.314;2024-03-08T02:25:46;99995.28;;;-1.65;100.00
36454;BME280;22478;51.740;-1.314;2024-03-08T02:28:14;99982.48;;;-1.48;100.00
36454;BME280;22478;51.740;-1.314;2024-03-08T02:30:41;99981.09;;;-0.94;100.00
36454;BME280;22478;51.740;-1.314;2024-03-08T02:33:09;99974.80;;;-1.15;100.00
36454;BME280;22478;51.740;-1.314;2024-03-08T02:35:36;99973.68;;;-2.20;100.00
36454;BME280;22478;51.740;-1.314;2024-03-08T02:38:03;99974.18;;;-2.86;100.00
36454;BME280;22478;51.740;-1.314;2024-03-08T02:40:31;99954.72;;;-1.97;100.00
36454;BME280;22478;51.740;-1.314;2024-03-08T02:42:58;99958.77;;;-4.12;100.00
36454;BME280;22478;51.740;-1.314;2024-03-08T02:45:25;99955.62;;;-3.42;100.00
36454;BME280;22478;51.740;-1.314;2024-03-08T02:47:53;99947.78;;;-2.17;100.00
36454;BME280;22478;51.740;-1.314;2024-03-08T02:50:20;99943.51;;;-3.40;100.00
36454;BME280;22478;51.740;-1.314;2024-03-08T02:52:48;99929.01;;;-1.64;100.00
36454;BME280;22478;51.740;-1.314;2024-03-08T02:55:15;99927.34;;;-2.35;100.00
36454;BME280;22478;51.740;-1.314;2024-03-08T02:57:43;99927.70;;;-2.42;100.00
36454;BME280;22478;51.740;-1.314;2024-03-08T03:00:11;99924.18;;;-3.06;100.00
36454;BME280;22478;51.740;-1.314;2024-03-08T03:02:39;99922.81;;;-2.82;100.00
36454;BME280;22478;51.740;-1.314;2024-03-08T03:05:07;99921.10;;;-3.45;100.00
36454;BME280;22478;51.740;-1.314;2024-03-08T03:07:34;99919.98;;;-3.33;100.00
36454;BME280;22478;51.740;-1.314;2024-03-08T03:10:02;99917.82;;;-3.29;100.00
36454;BME280;22478;51.740;-1.314;2024-03-08T03:12:30;99915.25;;;-4.00;100.00
36454;BME280;22478;51.740;-1.314;2024-03-08T03:14:57;99910.38;;;-1.93;100.00
36454;BME280;22478;51.740;-1.314;2024-03-08T03:17:26;99901.72;;;-2.63;100.00
36454;BME280;22478;51.740;-1.314;2024-03-08T03:19:53;99901.27;;;-3.16;100.00
36454;BME280;22478;51.740;-1.314;2024-03-08T03:22:21;99898.27;;;-3.14;100.00
36454;BME280;22478;51.740;-1.314;2024-03-08T03:24:48;99892.36;;;-2.37;100.00
36454;BME280;22478;51.740;-1.314;2024-03-08T03:27:16;99890.11;;;-3.13;100.00
36454;BME280;22478;51.740;-1.314;2024-03-08T03:29:44;99881.88;;;-2.78;100.00
36454;BME280;22478;51.740;-1.314;2024-03-08T03:32:11;99874.39;;;-2.36;100.00
36454;BME280;22478;51.740;-1.314;2024-03-08T03:34:39;99877.74;;;-3.49;100.00
36454;BME280;22478;51.740;-1.314;2024-03-08T03:37:07;99874.33;;;-2.19;100.00
36454;BME280;22478;51.740;-1.314;2024-03-08T03:39:35;99874.24;;;-2.47;100.00
36454;BME280;22478;51.740;-1.314;2024-03-08T03:42:02;99867.99;;;-2.42;100.00
36454;BME280;22478;51.740;-1.314;2024-03-08T03:44:29;99871.95;;;-3.84;100.00
36454;BME280;22478;51.740;-1.314;2024-03-08T03:46:56;99871.98;;;-3.47;100.00
36454;BME280;22478;51.740;-1.314;2024-03-08T03:49:24;99870.87;;;-2.96;100.00
36454;BME280;22478;51.740;-1.314;2024-03-08T03:51:51;99870.70;;;-3.41;100.00
36454;BME280;22478;51.740;-1.314;2024-03-08T03:54:18;99869.78;;;-3.33;100.00
36454;BME280;22478;51.740;-1.314;2024-03-08T03:56:46;99861.15;;;-2.34;100.00
36454;BME280;22478;51.740;-1.314;2024-03-08T03:59:13;99857.04;;;-1.96;100.00
36454;BME280;22478;51.740;-1.314;2024-03-08T04:01:42;99855.31;;;-3.43;100.00
36454;BME280;22478;51.740;-1.314;2024-03-08T04:04:09;99854.50;;;-3.55;100.00
36454;BME280;22478;51.740;-1.314;2024-03-08T04:06:37;99849.25;;;-2.35;100.00
36454;BME280;22478;51.740;-1.314;2024-03-08T04:09:04;99849.93;;;-3.33;100.00
36454;BME280;22478;51.740;-1.314;2024-03-08T04:11:32;99851.13;;;-3.35;100.00
36454;BME280;22478;51.740;-1.314;2024-03-08T04:13:59;99848.37;;;-3.38;100.00
36454;BME280;22478;51.740;-1.314;2024-03-08T04:16:26;99850.63;;;-3.46;100.00
36454;BME280;22478;51.740;-1.314;2024-03-08T04:18:54;99839.38;;;-2.38;100.00
36454;BME280;22478;51.740;-1.314;2024-03-08T04:21:21;99824.35;;;-1.82;100.00
36454;BME280;22478;51.740;-1.314;2024-03-08T04:23:48;99820.97;;;-1.04;100.00
36454;BME280;22478;51.740;-1.314;2024-03-08T04:26:16;99824.44;;;-2.76;100.00
36454;BME280;22478;51.740;-1.314;2024-03-08T04:28:43;99822.16;;;-2.66;100.00
36454;BME280;22478;51.740;-1.314;2024-03-08T04:31:10;99821.03;;;-3.76;100.00
36454;BME280;22478;51.740;-1.314;2024-03-08T04:33:38;99825.87;;;-3.17;100.00
36454;BME280;22478;51.740;-1.314;2024-03-08T04:36:06;99817.75;;;-1.81;100.00
36454;BME280;22478;51.740;-1.314;2024-03-08T04:38:33;99816.39;;;-2.38;100.00
36454;BME280;22478;51.740;-1.314;2024-03-08T04:41:00;99804.68;;;-1.76;100.00
36454;BME280;22478;51.740;-1.314;2024-03-08T04:43:28;99806.73;;;-1.86;100.00
36454;BME280;22478;51.740;-1.314;2024-03-08T04:45:55;99809.59;;;-2.29;100.00
36454;BME280;22478;51.740;-1.314;2024-03-08T04:48:22;99811.94;;;-3.81;100.00
36454;BME280;22478;51.740;-1.314;2024-03-08T04:50:49;99805.57;;;-2.15;100.00
36454;BME280;22478;51.740;-1.314;2024-03-08T04:53:17;99803.87;;;-2.36;100.00
36454;BME280;22478;51.740;-1.314;2024-03-08T04:55:44;99809.44;;;-3.48;100.00
36454;BME280;22478;51.740;-1.314;2024-03-08T04:58:11;99801.88;;;-2.90;100.00
36454;BME280;22478;51.740;-1.314;2024-03-08T05:00:38;99800.34;;;-3.13;100.00
36454;BME280;22478;51.740;-1.314;2024-03-08T05:03:05;99791.64;;;-3.22;100.00
36454;BME280;22478;51.740;-1.314;2024-03-08T05:05:32;99794.26;;;-3.55;100.00
36454;BME280;22478;51.740;-1.314;2024-03-08T05:08:00;99793.13;;;-2.91;100.00
36454;BME280;22478;51.740;-1.314;2024-03-08T05:10:28;99795.60;;;-4.10;100.00
36454;BME280;22478;51.740;-1.314;2024-03-08T05:12:55;99782.21;;;-1.11;100.00
36454;BME280;22478;51.740;-1.314;2024-03-08T05:15:23;99785.83;;;-3.22;100.00
36454;BME280;22478;51.740;-1.314;2024-03-08T05:17:50;99788.02;;;-4.15;100.00
36454;BME280;22478;51.740;-1.314;2024-03-08T05:20:17;99786.22;;;-3.63;100.00
36454;BME280;22478;51.740;-1.314;2024-03-08T05:22:44;99781.88;;;-3.87;100.00
36454;BME280;22478;51.740;-1.314;2024-03-08T05:25:12;99771.39;;;-3.02;100.00
36454;BME280;22478;51.740;-1.314;2024-03-08T05:27:39;99771.16;;;-3.42;100.00
36454;BME280;22478;51.740;-1.314;2024-03-08T05:30:07;99768.09;;;-3.16;100.00
36454;BME280;22478;51.740;-1.314;2024-03-08T05:32:34;99753.92;;;-2.72;100.00
36454;BME280;22478;51.740;-1.314;2024-03-08T05:35:02;99761.63;;;-3.27;100.00
36454;BME280;22478;51.740;-1.314;2024-03-08T05:37:30;99757.07;;;-3.38;100.00
36454;BME280;22478;51.740;-1.314;2024-03-08T05:39:57;99757.58;;;-3.18;100.00
36454;BME280;22478;51.740;-1.314;2024-03-08T05:42:24;99748.14;;;-2.26;100.00
36454;BME280;22478;51.740;-1.314;2024-03-08T05:44:52;99747.41;;;-2.05;100.00
36454;BME280;22478;51.740;-1.314;2024-03-08T05:47:18;99742.56;;;-2.73;100.00
36454;BME280;22478;51.740;-1.314;2024-03-08T05:49:46;99749.53;;;-3.16;100.00
36454;BME280;22478;51.740;-1.314;2024-03-08T05:52:13;99739.34;;;-2.41;100.00
36454;BME280;22478;51.740;-1.314;2024-03-08T05:54:40;99738.10;;;-2.67;100.00
36454;BME280;22478;51.740;-1.314;2024-03-08T05:57:07;99737.11;;;-2.38;100.00
36454;BME280;22478;51.740;-1.314;2024-03-08T05:59:34;99740.41;;;-3.13;100.00
36454;BME280;22478;51.740;-1.314;2024-03-08T06:02:02;99735.93;;;-3.55;100.00
36454;BME280;22478;51.740;-1.314;2024-03-08T06:04:29;99726.76;;;-1.77;100.00
36454;BME280;22478;51.740;-1.314;2024-03-08T06:06:56;99737.25;;;-3.62;100.00
36454;BME280;22478;51.740;-1.314;2024-03-08T06:09:24;99727.24;;;-2.28;100.00
36454;BME280;22478;51.740;-1.314;2024-03-08T06:11:51;99733.26;;;-3.31;100.00
36454;BME280;22478;51.740;-1.314;2024-03-08T06:14:18;99730.95;;;-2.02;100.00
36454;BME280;22478;51.740;-1.314;2024-03-08T06:16:46;99723.65;;;-2.51;100.00
36454;BME280;22478;51.740;-1.314;2024-03-08T06:19:14;99723.45;;;-3.39;100.00
36454;BME280;22478;51.740;-1.314;2024-03-08T06:21:41;99737.57;;;-3.23;100.00
36454;BME280;22478;51.740;-1.314;2024-03-08T06:24:08;99733.96;;;-3.03;100.00
36454;BME280;22478;51.740;-1.314;2024-03-08T06:26:36;99732.10;;;-3.45;100.00
36454;BME280;22478;51.740;-1.314;2024-03-08T06:29:03;99720.96;;;-2.54;100.00
36454;BME280;22478;51.740;-1.314;2024-03-08T06:31:30;99723.92;;;-1.99;100.00
36454;BME280;22478;51.740;-1.314;2024-03-08T06:33:57;99722.29;;;-1.57;100.00
36454;BME280;22478;51.740;-1.314;2024-03-08T06:36:25;99722.63;;;-3.23;100.00
36454;BME280;22478;51.740;-1.314;2024-03-08T06:38:52;99726.45;;;-3.05;100.00
36454;BME280;22478;51.740;-1.314;2024-03-08T06:41:19;99726.91;;;-2.55;100.00
36454;BME280;22478;51.740;-1.314;2024-03-08T06:43:47;99715.95;;;-2.13;100.00
36454;BME280;22478;51.740;-1.314;2024-03-08T06:46:15;99716.45;;;-3.16;100.00
36454;BME280;22478;51.740;-1.314;2024-03-08T06:48:43;99709.48;;;-3.32;100.00
36454;BME280;22478;51.740;-1.314;2024-03-08T06:51:11;99708.85;;;-2.89;100.00
36454;BME280;22478;51.740;-1.314;2024-03-08T06:53:38;99706.70;;;-3.18;100.00
36454;BME280;22478;51.740;-1.314;2024-03-08T06:56:06;99710.60;;;-3.32;100.00
36454;BME280;22478;51.740;-1.314;2024-03-08T06:58:33;99709.11;;;-3.13;100.00
36454;BME280;22478;51.740;-1.314;2024-03-08T07:01:01;99696.17;;;-0.95;100.00
36454;BME280;22478;51.740;-1.314;2024-03-08T07:03:28;99704.81;;;-2.13;100.00
36454;BME280;22478;51.740;-1.314;2024-03-08T07:05:56;99700.01;;;-2.48;100.00
36454;BME280;22478;51.740;-1.314;2024-03-08T07:08:23;99709.63;;;-2.18;100.00
36454;BME280;22478;51.740;-1.314;2024-03-08T07:10:51;99702.71;;;-1.20;100.00
36454;BME280;22478;51.740;-1.314;2024-03-08T07:13:18;99704.74;;;-2.63;100.00
36454;BME280;22478;51.740;-1.314;2024-03-08T07:15:45;99698.11;;;-3.29;100.00
36454;BME280;22478;51.740;-1.314;2024-03-08T07:18:12;99699.11;;;-3.18;100.00
36454;BME280;22478;51.740;-1.314;2024-03-08T07:20:40;99700.35;;;-2.99;100.00
36454;BME280;22478;51.740;-1.314;2024-03-08T07:23:08;99694.59;;;-2.19;100.00
36454;BME280;22478;51.740;-1.314;2024-03-08T07:25:35;99694.26;;;-3.31;100.00
36454;BME280;22478;51.740;-1.314;2024-03-08T07:28:02;99707.31;;;-2.37;100.00
36454;BME280;22478;51.740;-1.314;2024-03-08T07:30:30;99697.63;;;-2.30;100.00
36454;BME280;22478;51.740;-1.314;2024-03-08T07:32:57;99690.87;;;-3.20;100.00
36454;BME280;22478;51.740;-1.314;2024-03-08T07:35:24;99694.09;;;-2.27;100.00
36454;BME280;22478;51.740;-1.314;2024-03-08T07:37:51;99696.55;;;-2.93;100.00
36454;BME280;22478;51.740;-1.314;2024-03-08T07:40:18;99692.48;;;-2.07;100.00
36454;BME280;22478;51.740;-1.314;2024-03-08T07:42:46;99694.73;;;-2.55;100.00
36454;BME280;22478;51.740;-1.314;2024-03-08T07:45:13;99701.65;;;-3.29;100.00
36454;BME280;22478;51.740;-1.314;2024-03-08T07:47:41;99689.56;;;-2.76;100.00
36454;BME280;22478;51.740;-1.314;2024-03-08T07:50:09;99692.56;;;-2.44;100.00
36454;BME280;22478;51.740;-1.314;2024-03-08T07:52:36;99693.12;;;-2.78;100.00
36454;BME280;22478;51.740;-1.314;2024-03-08T07:55:04;99684.62;;;-3.03;100.00
36454;BME280;22478;51.740;-1.314;2024-03-08T07:57:31;99691.57;;;-3.72;100.00
36454;BME280;22478;51.740;-1.314;2024-03-08T07:59:58;99679.97;;;-1.73;100.00
36454;BME280;22478;51.740;-1.314;2024-03-08T08:02:26;99678.52;;;-2.74;100.00
36454;BME280;22478;51.740;-1.314;2024-03-08T08:04:53;99683.78;;;-2.85;100.00
36454;BME280;22478;51.740;-1.314;2024-03-08T08:07:20;99674.07;;;-1.39;100.00
36454;BME280;22478;51.740;-1.314;2024-03-08T08:09:47;99672.07;;;-2.35;100.00
36454;BME280;22478;51.740;-1.314;2024-03-08T08:12:15;99675.31;;;-2.33;100.00
36454;BME280;22478;51.740;-1.314;2024-03-08T08:14:43;99664.54;;;-1.54;100.00
36454;BME280;22478;51.740;-1.314;2024-03-08T08:17:10;99661.94;;;-1.58;100.00
36454;BME280;22478;51.740;-1.314;2024-03-08T08:19:37;99667.53;;;-1.92;100.00
36454;BME280;22478;51.740;-1.314;2024-03-08T08:22:04;99668.56;;;-0.91;100.00
36454;BME280;22478;51.740;-1.314;2024-03-08T08:24:31;99665.87;;;-2.01;100.00
36454;BME280;22478;51.740;-1.314;2024-03-08T08:26:59;99661.79;;;-0.84;100.00
36454;BME280;22478;51.740;-1.314;2024-03-08T08:29:26;99659.75;;;-2.47;100.00
36454;BME280;22478;51.740;-1.314;2024-03-08T08:31:53;99666.21;;;-3.70;100.00
36454;BME280;22478;51.740;-1.314;2024-03-08T08:34:21;99654.60;;;-1.73;100.00
36454;BME280;22478;51.740;-1.314;2024-03-08T08:36:48;99648.25;;;-0.12;100.00
36454;BME280;22478;51.740;-1.314;2024-03-08T08:39:15;99642.95;;;0.89;100.00
36454;BME280;22478;51.740;-1.314;2024-03-08T08:41:42;99646.88;;;-2.11;100.00
36454;BME280;22478;51.740;-1.314;2024-03-08T08:44:09;99640.52;;;-1.12;100.00
36454;BME280;22478;51.740;-1.314;2024-03-08T08:46:36;99631.36;;;-2.01;100.00
36454;BME280;22478;51.740;-1.314;2024-03-08T08:49:04;99633.25;;;-2.51;100.00
36454;BME280;22478;51.740;-1.314;2024-03-08T08:51:32;99620.44;;;-0.53;100.00
36454;BME280;22478;51.740;-1.314;2024-03-08T08:53:59;99622.34;;;-1.57;100.00
36454;BME280;22478;51.740;-1.314;2024-03-08T08:56:26;99619.64;;;-1.52;100.00
36454;BME280;22478;51.740;-1.314;2024-03-08T08:58:53;99615.53;;;-1.65;100.00
36454;BME280;22478;51.740;-1.314;2024-03-08T09:01:21;99617.57;;;-0.84;100.00
36454;BME280;22478;51.740;-1.314;2024-03-08T09:03:49;99614.81;;;-0.38;100.00
36454;BME280;22478;51.740;-1.314;2024-03-08T09:06:17;99613.68;;;-2.12;100.00
36454;BME280;22478;51.740;-1.314;2024-03-08T09:08:44;99606.64;;;-2.30;100.00
36454;BME280;22478;51.740;-1.314;2024-03-08T09:11:12;99603.83;;;-1.56;100.00
36454;BME280;22478;51.740;-1.314;2024-03-08T09:13:39;99597.24;;;-1.09;100.00
36454;BME280;22478;51.740;-1.314;2024-03-08T09:16:06;99597.92;;;-2.20;100.00
36454;BME280;22478;51.740;-1.314;2024-03-08T09:18:33;99594.85;;;-0.60;100.00
36454;BME280;22478;51.740;-1.314;2024-03-08T09:21:00;99575.80;;;-0.65;100.00
36454;BME280;22478;51.740;-1.314;2024-03-08T09:23:28;99581.92;;;-2.43;100.00
36454;BME280;22478;51.740;-1.314;2024-03-08T09:25:55;99574.85;;;-1.11;100.00
36454;BME280;22478;51.740;-1.314;2024-03-08T09:28:23;99566.69;;;-0.96;100.00
36454;BME280;22478;51.740;-1.314;2024-03-08T09:30:51;99568.99;;;-0.95;100.00
36454;BME280;22478;51.740;-1.314;2024-03-08T09:33:18;99557.91;;;-1.16;100.00
36454;BME280;22478;51.740;-1.314;2024-03-08T09:35:45;99550.58;;;-1.46;100.00
36454;BME280;22478;51.740;-1.314;2024-03-08T09:38:12;99548.73;;;-0.51;100.00
36454;BME280;22478;51.740;-1.314;2024-03-08T09:40:41;99546.23;;;-1.03;100.00
36454;BME280;22478;51.740;-1.314;2024-03-08T09:43:09;99540.97;;;-0.62;100.00
36454;BME280;22478;51.740;-1.314;2024-03-08T09:45:37;99539.55;;;-0.60;100.00
36454;BME280;22478;51.740;-1.314;2024-03-08T09:48:05;99537.20;;;-0.73;100.00
36454;BME280;22478;51.740;-1.314;2024-03-08T09:50:33;99534.94;;;-1.29;100.00
36454;BME280;22478;51.740;-1.314;2024-03-08T09:53:01;99534.15;;;-0.26;100.00
36454;BME280;22478;51.740;-1.314;2024-03-08T09:55:29;99525.82;;;0.24;100.00
36454;BME280;22478;51.740;-1.314;2024-03-08T09:57:58;99528.72;;;-0.01;100.00
36454;BME280;22478;51.740;-1.314;2024-03-08T10:00:26;99516.72;;;0.24;100.00
36454;BME280;22478;51.740;-1.314;2024-03-08T10:02:53;99512.25;;;1.31;100.00
36454;BME280;22478;51.740;-1.314;2024-03-08T10:05:20;99520.91;;;-0.78;100.00
36454;BME280;22478;51.740;-1.314;2024-03-08T10:07:47;99510.12;;;1.10;100.00
36454;BME280;22478;51.740;-1.314;2024-03-08T10:10:14;99504.02;;;1.18;100.00
36454;BME280;22478;51.740;-1.314;2024-03-08T10:12:41;99511.10;;;-0.32;100.00
36454;BME280;22478;51.740;-1.314;2024-03-08T10:15:09;99493.71;;;1.22;100.00
36454;BME280;22478;51.740;-1.314;2024-03-08T10:17:36;99483.47;;;0.46;100.00
36454;BME280;22478;51.740;-1.314;2024-03-08T10:20:04;99485.25;;;0.55;100.00
36454;BME280;22478;51.740;-1.314;2024-03-08T10:22:40;99476.90;;;1.34;100.00
36454;BME280;22478;51.740;-1.314;2024-03-08T10:25:07;99471.36;;;-0.07;100.00
36454;BME280;22478;51.740;-1.314;2024-03-08T10:27:35;99457.29;;;3.39;100.00
36454;BME280;22478;51.740;-1.314;2024-03-08T10:30:04;99454.87;;;0.72;100.00
36454;BME280;22478;51.740;-1.314;2024-03-08T10:32:33;99444.17;;;1.24;100.00
36454;BME280;22478;51.740;-1.314;2024-03-08T10:35:00;99456.23;;;-0.28;100.00
36454;BME280;22478;51.740;-1.314;2024-03-08T10:37:28;99469.60;;;0.79;100.00
36454;BME280;22478;51.740;-1.314;2024-03-08T10:40:02;99444.19;;;1.08;100.00
36454;BME280;22478;51.740;-1.314;2024-03-08T10:42:33;99432.33;;;0.57;100.00
36454;BME280;22478;51.740;-1.314;2024-03-08T10:45:05;99439.54;;;1.08;100.00
36454;BME280;22478;51.740;-1.314;2024-03-08T10:47:34;99416.70;;;1.48;100.00
36454;BME280;22478;51.740;-1.314;2024-03-08T10:50:09;99422.18;;;2.91;100.00
36454;BME280;22478;51.740;-1.314;2024-03-08T10:52:37;99406.67;;;2.67;100.00
36454;BME280;22478;51.740;-1.314;2024-03-08T10:55:05;99410.60;;;2.74;100.00
36454;BME280;22478;51.740;-1.314;2024-03-08T10:57:35;99402.71;;;3.43;97.13
36454;BME280;22478;51.740;-1.314;2024-03-08T11:00:04;99399.53;;;1.48;99.92
36454;BME280;22478;51.740;-1.314;2024-03-08T11:02:33;99405.75;;;1.58;100.00
36454;BME280;22478;51.740;-1.314;2024-03-08T11:05:02;99400.19;;;2.07;100.00
36454;BME280;22478;51.740;-1.314;2024-03-08T11:07:33;99391.96;;;2.06;100.00
36454;BME280;22478;51.740;-1.314;2024-03-08T11:10:02;99398.41;;;2.22;100.00
36454;BME280;22478;51.740;-1.314;2024-03-08T11:12:29;99394.74;;;0.09;100.00
36454;BME280;22478;51.740;-1.314;2024-03-08T11:15:03;99384.58;;;3.15;99.61
36454;BME280;22478;51.740;-1.314;2024-03-08T11:17:44;99387.57;;;2.60;100.00
36454;BME280;22478;51.740;-1.314;2024-03-08T11:20:13;99384.58;;;1.21;100.00
36454;BME280;22478;51.740;-1.314;2024-03-08T11:22:42;99383.05;;;3.25;100.00
36454;BME280;22478;51.740;-1.314;2024-03-08T11:25:09;99384.08;;;2.06;100.00
36454;BME280;22478;51.740;-1.314;2024-03-08T11:27:37;99386.68;;;1.14;100.00
36454;BME280;22478;51.740;-1.314;2024-03-08T11:30:07;99381.89;;;1.19;100.00
36454;BME280;22478;51.740;-1.314;2024-03-08T11:32:35;99370.24;;;3.46;94.50
36454;BME280;22478;51.740;-1.314;2024-03-08T11:35:06;99366.94;;;4.15;93.58
36454;BME280;22478;51.740;-1.314;2024-03-08T11:37:34;99366.72;;;2.26;100.00
36454;BME280;22478;51.740;-1.314;2024-03-08T11:40:02;99364.55;;;2.16;100.00
36454;BME280;22478;51.740;-1.314;2024-03-08T11:42:30;99362.38;;;2.13;100.00
36454;BME280;22478;51.740;-1.314;2024-03-08T11:44:58;99368.52;;;2.54;100.00
36454;BME280;22478;51.740;-1.314;2024-03-08T11:47:25;99365.98;;;0.35;100.00
36454;BME280;22478;51.740;-1.314;2024-03-08T11:49:53;99358.89;;;1.73;100.00
36454;BME280;22478;51.740;-1.314;2024-03-08T11:52:21;99358.27;;;1.79;100.00
36454;BME280;22478;51.740;-1.314;2024-03-08T11:54:52;99357.24;;;1.92;100.00
36454;BME280;22478;51.740;-1.314;2024-03-08T11:57:20;99354.43;;;1.87;100.00
36454;BME280;22478;51.740;-1.314;2024-03-08T11:59:50;99347.65;;;1.98;100.00
36454;BME280;22478;51.740;-1.314;2024-03-08T12:02:17;99341.31;;;2.62;100.00
36454;BME280;22478;51.740;-1.314;2024-03-08T12:04:45;99345.05;;;2.54;100.00
36454;BME280;22478;51.740;-1.314;2024-03-08T12:07:12;99338.81;;;2.32;100.00
36454;BME280;22478;51.740;-1.314;2024-03-08T12:09:40;99332.42;;;2.29;100.00
36454;BME280;22478;51.740;-1.314;2024-03-08T12:12:08;99325.48;;;1.81;95.89
36454;BME280;22478;51.740;-1.314;2024-03-08T12:14:35;99328.98;;;3.06;93.30
36454;BME280;22478;51.740;-1.314;2024-03-08T12:17:04;99322.60;;;2.11;91.55
36454;BME280;22478;51.740;-1.314;2024-03-08T12:19:32;99310.33;;;4.13;87.70
36454;BME280;22478;51.740;-1.314;2024-03-08T12:22:08;99305.31;;;2.65;89.70
36454;BME280;22478;51.740;-1.314;2024-03-08T12:24:36;99307.61;;;2.72;89.25
36454;BME280;22478;51.740;-1.314;2024-03-08T12:27:17;99302.97;;;3.72;85.23
36454;BME280;22478;51.740;-1.314;2024-03-08T12:29:45;99279.09;;;5.29;77.74
36454;BME280;22478;51.740;-1.314;2024-03-08T12:32:13;99287.29;;;3.69;79.15
36454;BME280;22478;51.740;-1.314;2024-03-08T12:34:40;99276.10;;;6.33;73.60
36454;BME280;22478;51.740;-1.314;2024-03-08T12:37:07;99276.64;;;7.11;63.29
36454;BME280;22478;51.740;-1.314;2024-03-08T12:39:34;99266.98;;;5.22;64.86
36454;BME280;22478;51.740;-1.314;2024-03-08T12:42:02;99263.77;;;6.02;59.16